createdAt,value
2018-10-17T00:00:36.657Z,17.87
2018-10-17T00:02:40.468Z,17.80
2018-10-17T00:04:51.104Z,17.40
2018-10-17T00:06:55.146Z,17.62
2018-10-17T00:08:59.093Z,20.70
2018-10-17T00:11:03.200Z,17.98
2018-10-17T00:13:07.568Z,18.57
2018-10-17T00:15:11.580Z,20.75
2018-10-17T00:17:15.318Z,20.43
2018-10-17T00:19:19.140Z,18.80
2018-10-17T00:21:23.223Z,21.20
2018-10-17T00:23:26.960Z,22.58
2018-10-17T00:25:30.759Z,20.88
2018-10-17T00:27:34.552Z,22.10
2018-10-17T00:29:38.368Z,19.05
2018-10-17T00:31:42.172Z,17.82
2018-10-17T00:33:45.942Z,16.70
2018-10-17T00:35:49.755Z,21.65
2018-10-17T00:37:53.543Z,17.15
2018-10-17T00:39:57.323Z,18.62
2018-10-17T00:42:01.108Z,17.32
2018-10-17T00:44:05.239Z,18.77
2018-10-17T00:46:09.060Z,18.85
2018-10-17T00:48:12.883Z,25.30
2018-10-17T00:50:16.648Z,21.97
2018-10-17T00:52:20.535Z,20.82
2018-10-17T00:54:24.305Z,21.90
2018-10-17T00:56:28.091Z,18.17
2018-10-17T00:58:31.857Z,20.17
2018-10-17T01:00:35.593Z,20.00
2018-10-17T01:02:39.358Z,21.10
2018-10-17T01:04:43.123Z,21.50
2018-10-17T01:06:46.899Z,17.50
2018-10-17T01:08:50.698Z,19.27
2018-10-17T01:10:54.812Z,18.07
2018-10-17T01:12:58.824Z,20.27
2018-10-17T01:15:02.767Z,17.75
2018-10-17T01:17:06.705Z,16.45
2018-10-17T01:19:10.724Z,19.05
2018-10-17T01:21:14.668Z,21.30
2018-10-17T01:23:18.444Z,19.65
2018-10-17T01:25:22.322Z,18.48
2018-10-17T01:27:26.161Z,20.75
2018-10-17T01:29:29.964Z,21.85
2018-10-17T01:31:33.788Z,20.62
2018-10-17T01:33:37.587Z,16.73
2018-10-17T01:35:41.371Z,18.37
2018-10-17T01:37:45.153Z,22.37
2018-10-17T01:39:48.944Z,18.45
2018-10-17T01:41:52.710Z,18.35
2018-10-17T01:43:56.476Z,17.62
2018-10-17T01:46:00.675Z,18.12
2018-10-17T01:48:04.467Z,18.17
2018-10-17T01:50:09.158Z,17.62
2018-10-17T01:52:12.937Z,22.25
2018-10-17T01:54:16.715Z,20.68
2018-10-17T01:56:20.473Z,22.65
2018-10-17T01:58:24.264Z,17.87
2018-10-17T02:00:28.035Z,17.92
2018-10-17T02:02:31.828Z,20.72
2018-10-17T02:04:35.599Z,19.62
2018-10-17T02:06:39.375Z,18.17
2018-10-17T02:08:43.151Z,18.57
2018-10-17T02:10:46.979Z,18.45
2018-10-17T02:12:50.793Z,17.50
2018-10-17T02:14:54.726Z,17.17
2018-10-17T02:16:58.525Z,19.17
2018-10-17T02:19:02.548Z,18.62
2018-10-17T02:21:06.516Z,18.82
2018-10-17T02:23:10.375Z,16.10
2018-10-17T02:25:14.330Z,18.23
2018-10-17T02:27:18.297Z,18.45
2018-10-17T02:29:22.077Z,21.93
2018-10-17T02:31:26.083Z,16.75
2018-10-17T02:33:29.907Z,16.48
2018-10-17T02:35:33.689Z,16.95
2018-10-17T02:37:37.498Z,17.20
2018-10-17T02:39:41.371Z,16.90
2018-10-17T02:41:45.256Z,18.02
2018-10-17T02:43:49.150Z,19.15
2018-10-17T02:45:52.922Z,18.82
2018-10-17T02:48:00.064Z,18.92
2018-10-17T02:50:07.478Z,17.45
2018-10-17T02:52:11.279Z,18.37
2018-10-17T02:54:15.080Z,18.15
2018-10-17T02:56:18.851Z,18.65
2018-10-17T02:58:22.700Z,19.42
2018-10-17T03:00:26.884Z,20.00
2018-10-17T03:02:30.767Z,18.50
2018-10-17T03:04:34.568Z,17.65
2018-10-17T03:06:38.322Z,17.15
2018-10-17T03:08:42.129Z,19.07
2018-10-17T03:10:45.912Z,18.27
2018-10-17T03:12:49.739Z,18.98
2018-10-17T03:14:53.727Z,19.00
2018-10-17T03:16:57.615Z,16.73
2018-10-17T03:19:01.966Z,19.20
2018-10-17T03:21:05.918Z,17.23
2018-10-17T03:23:09.787Z,20.23
2018-10-17T03:25:13.746Z,18.92
2018-10-17T03:27:17.601Z,18.52
2018-10-17T03:29:21.404Z,18.98
2018-10-17T03:31:25.311Z,22.37
2018-10-17T03:33:29.212Z,19.57
2018-10-17T03:35:32.971Z,20.62
2018-10-17T03:37:37.061Z,21.37
2018-10-17T03:39:40.828Z,18.05
2018-10-17T03:41:44.563Z,17.42
2018-10-17T03:43:48.339Z,19.25
2018-10-17T03:45:52.097Z,18.27
2018-10-17T03:47:55.860Z,16.52
2018-10-17T03:49:59.712Z,19.65
2018-10-17T03:52:03.638Z,21.20
2018-10-17T03:54:07.411Z,20.75
2018-10-17T03:56:11.224Z,18.85
2018-10-17T03:58:14.999Z,19.82
2018-10-17T04:00:18.832Z,18.20
2018-10-17T04:02:22.626Z,20.12
2018-10-17T04:04:26.461Z,17.07
2018-10-17T04:06:30.299Z,17.23
2018-10-17T04:08:34.040Z,17.57
2018-10-17T04:10:37.812Z,16.87
2018-10-17T04:12:41.573Z,17.98
2018-10-17T04:14:45.368Z,19.70
2018-10-17T04:16:49.151Z,20.80
2018-10-17T04:18:52.973Z,20.70
2018-10-17T04:20:56.957Z,21.23
2018-10-17T04:23:00.755Z,22.48
2018-10-17T04:25:05.092Z,20.68
2018-10-17T04:27:09.065Z,20.02
2018-10-17T04:29:12.925Z,19.00
2018-10-17T04:31:17.034Z,20.57
2018-10-17T04:33:20.867Z,18.50
2018-10-17T04:35:24.652Z,21.93
2018-10-17T04:37:28.433Z,18.05
2018-10-17T04:39:32.291Z,18.00
2018-10-17T04:41:38.678Z,22.15
2018-10-17T04:43:43.257Z,21.07
2018-10-17T04:45:52.037Z,19.45
2018-10-17T04:47:56.679Z,19.20
2018-10-17T04:50:02.436Z,21.95
2018-10-17T04:52:07.081Z,23.07
2018-10-17T04:54:11.555Z,24.95
2018-10-17T04:56:15.561Z,23.70
2018-10-17T04:58:19.546Z,22.90
2018-10-17T05:00:25.098Z,24.72
2018-10-17T05:02:28.988Z,26.35
2018-10-17T05:04:32.968Z,24.57
2018-10-17T05:06:37.087Z,24.55
2018-10-17T05:08:41.172Z,26.52
2018-10-17T05:10:45.076Z,25.27
2018-10-17T05:12:48.987Z,23.85
2018-10-17T05:14:53.002Z,21.12
2018-10-17T05:16:56.889Z,21.17
2018-10-17T05:19:02.327Z,22.85
2018-10-17T05:21:06.299Z,20.27
2018-10-17T05:23:10.144Z,22.62
2018-10-17T05:25:14.300Z,23.27
2018-10-17T05:27:18.573Z,22.42
2018-10-17T05:29:22.371Z,23.73
2018-10-17T05:31:26.218Z,21.95
2018-10-17T05:33:30.124Z,24.85
2018-10-17T05:35:34.356Z,26.80
2018-10-17T05:37:38.276Z,21.07
2018-10-17T05:39:42.112Z,21.70
2018-10-17T05:41:46.015Z,22.22
2018-10-17T05:43:49.882Z,22.02
2018-10-17T05:45:53.727Z,21.82
2018-10-17T05:47:57.546Z,23.73
2018-10-17T05:50:01.320Z,25.05
2018-10-17T05:52:05.564Z,27.73
2018-10-17T05:54:09.504Z,26.70
2018-10-17T05:56:13.393Z,27.55
2018-10-17T05:58:17.579Z,27.60
2018-10-17T06:00:21.550Z,23.70
2018-10-17T06:02:28.033Z,24.52
2018-10-17T06:04:32.006Z,29.72
2018-10-17T06:06:35.935Z,27.50
2018-10-17T06:08:39.901Z,24.02
2018-10-17T06:10:43.796Z,20.43
2018-10-17T06:12:47.661Z,23.60
2018-10-17T06:14:51.596Z,25.40
2018-10-17T06:19:22.891Z,25.15
2018-10-17T06:21:33.528Z,34.10
2018-10-17T06:23:37.772Z,20.80
2018-10-17T06:25:41.704Z,20.35
2018-10-17T06:27:45.542Z,19.57
2018-10-17T06:29:49.379Z,22.13
2018-10-17T06:31:53.242Z,19.35
2018-10-17T06:33:57.206Z,20.32
2018-10-17T06:36:01.274Z,18.98
2018-10-17T06:38:05.340Z,18.27
2018-10-17T06:40:10.188Z,21.37
2018-10-17T06:42:14.244Z,17.07
2018-10-17T06:44:18.146Z,14.58
2018-10-17T06:46:22.357Z,15.63
2018-10-17T06:48:25.970Z,13.67
2018-10-17T06:50:29.617Z,13.13
2018-10-17T06:52:33.303Z,12.73
2018-10-17T06:54:36.970Z,13.20
2018-10-17T06:56:40.615Z,14.43
2018-10-17T06:58:44.161Z,11.83
2018-10-17T07:00:48.814Z,12.28
2018-10-17T07:02:52.397Z,15.93
2018-10-17T07:04:56.035Z,12.83
2018-10-17T07:07:00.155Z,13.83
2018-10-17T07:09:04.795Z,10.47
2018-10-17T07:11:08.416Z,11.80
2018-10-17T07:13:12.614Z,12.90
2018-10-17T07:15:16.696Z,10.70
2018-10-17T07:17:20.569Z,10.80
2018-10-17T07:19:24.240Z,10.70
2018-10-17T07:21:27.865Z,10.87
2018-10-17T07:23:31.359Z,10.70
2018-10-17T07:25:34.894Z,11.00
2018-10-17T07:27:38.486Z,11.33
2018-10-17T07:29:42.006Z,13.10
2018-10-17T07:31:45.981Z,11.70
2018-10-17T07:33:50.887Z,11.67
2018-10-17T07:35:54.694Z,15.13
2018-10-17T07:38:00.130Z,12.67
2018-10-17T07:40:03.854Z,11.80
2018-10-17T07:42:07.989Z,13.53
2018-10-17T07:44:11.769Z,12.67
2018-10-17T07:46:17.182Z,13.17
2018-10-17T07:48:21.011Z,12.13
2018-10-17T07:50:24.641Z,14.67
2018-10-17T07:52:28.290Z,13.13
2018-10-17T07:54:31.898Z,12.40
2018-10-17T07:56:37.120Z,14.47
2018-10-17T07:58:47.756Z,14.10
2018-10-17T08:01:01.500Z,14.73
2018-10-17T08:03:09.553Z,16.13
2018-10-17T08:05:13.806Z,14.57
2018-10-17T08:07:18.087Z,12.60
2018-10-17T08:09:21.904Z,13.53
2018-10-17T08:11:25.555Z,13.90
2018-10-17T08:13:29.264Z,16.50
2018-10-17T08:15:32.943Z,14.20
2018-10-17T08:17:36.718Z,14.97
2018-10-17T08:19:40.302Z,16.93
2018-10-17T08:21:44.730Z,13.67
2018-10-17T08:23:48.943Z,15.40
2018-10-17T08:25:53.100Z,18.33
2018-10-17T08:27:59.201Z,14.43
2018-10-17T08:30:03.601Z,15.10
2018-10-17T08:32:08.454Z,18.17
2018-10-17T08:34:13.241Z,17.43
2018-10-17T08:36:19.244Z,17.30
2018-10-17T08:38:29.691Z,18.43
2018-10-17T08:40:35.147Z,16.53
2018-10-17T08:42:39.142Z,19.73
2018-10-17T08:44:42.772Z,18.63
2018-10-17T08:46:49.946Z,18.00
2018-10-17T08:48:57.406Z,21.37
2018-10-17T08:51:01.390Z,21.52
2018-10-17T08:53:05.958Z,17.70
2018-10-17T08:55:28.892Z,18.57
2018-10-17T08:57:33.033Z,17.47
2018-10-17T08:59:38.013Z,17.60
2018-10-17T09:01:41.827Z,19.33
2018-10-17T09:03:45.931Z,20.80
2018-10-17T09:05:49.728Z,21.13
2018-10-17T09:07:53.490Z,19.67
2018-10-17T09:09:57.402Z,19.83
2018-10-17T09:12:01.179Z,21.23
2018-10-17T09:14:05.877Z,19.77
2018-10-17T09:16:09.966Z,19.70
2018-10-17T09:18:14.827Z,19.57
2018-10-17T09:20:19.414Z,19.93
2018-10-17T09:22:23.563Z,20.13
2018-10-17T09:24:27.320Z,19.07
2018-10-17T09:26:31.362Z,19.00
2018-10-17T09:28:35.513Z,19.83
2018-10-17T09:30:39.234Z,21.33
2018-10-17T09:32:43.670Z,23.30
2018-10-17T09:34:47.678Z,20.00
2018-10-17T09:36:51.335Z,21.13
2018-10-17T09:38:55.061Z,21.53
2018-10-17T09:40:59.007Z,20.90
2018-10-17T09:45:06.167Z,21.33
2018-10-17T09:47:10.019Z,20.37
2018-10-17T09:49:13.596Z,18.10
2018-10-17T09:51:18.334Z,16.90
2018-10-17T09:53:22.355Z,16.07
2018-10-17T09:55:27.394Z,15.40
2018-10-17T09:57:38.662Z,16.33
2018-10-17T09:59:47.117Z,20.73
2018-10-17T10:01:57.936Z,15.50
2018-10-17T10:04:02.956Z,16.23
2018-10-17T10:06:07.118Z,15.68
2018-10-17T10:08:10.902Z,14.23
2018-10-17T10:10:14.717Z,14.00
2018-10-17T10:12:18.714Z,15.53
2018-10-17T10:14:24.911Z,13.33
2018-10-17T10:16:29.307Z,12.13
2018-10-17T10:18:33.034Z,13.27
2018-10-17T10:20:37.204Z,11.73
2018-10-17T10:22:43.740Z,13.20
2018-10-17T10:24:53.755Z,11.90
2018-10-17T10:27:00.773Z,13.70
2018-10-17T10:29:08.244Z,14.67
2018-10-17T10:31:12.051Z,11.33
2018-10-17T10:33:17.956Z,10.27
2018-10-17T10:35:21.541Z,9.57
2018-10-17T10:37:25.755Z,9.77
2018-10-17T10:39:29.433Z,9.50
2018-10-17T10:41:33.442Z,9.80
2018-10-17T10:43:37.138Z,10.30
2018-10-17T10:45:41.632Z,9.90
2018-10-17T10:47:45.356Z,13.63
2018-10-17T10:49:48.915Z,11.67
2018-10-17T10:51:52.551Z,12.67
2018-10-17T10:53:56.476Z,10.93
2018-10-17T10:56:01.701Z,11.50
2018-10-17T10:58:06.085Z,11.63
2018-10-17T11:00:10.429Z,10.43
2018-10-17T11:02:14.464Z,12.07
2018-10-17T11:04:26.404Z,14.23
2018-10-17T11:06:34.324Z,9.00
2018-10-17T11:08:38.438Z,8.37
2018-10-17T11:10:42.095Z,10.47
2018-10-17T11:12:45.936Z,7.37
2018-10-17T11:14:55.109Z,7.30
2018-10-17T11:16:58.870Z,10.60
2018-10-17T11:19:04.740Z,8.97
2018-10-17T11:21:10.342Z,9.27
2018-10-17T11:23:21.869Z,7.40
2018-10-17T11:25:25.519Z,10.37
2018-10-17T11:27:29.853Z,10.17
2018-10-17T11:29:33.541Z,7.60
2018-10-17T11:31:37.576Z,8.03
2018-10-17T11:33:41.463Z,7.30
2018-10-17T11:35:45.477Z,8.50
2018-10-17T11:37:53.913Z,6.20
2018-10-17T11:45:06.112Z,6.90
2018-10-17T11:47:10.313Z,7.30
2018-10-17T11:49:25.505Z,7.20
2018-10-17T11:51:29.935Z,8.37
2018-10-17T11:53:34.438Z,6.80
2018-10-17T11:55:38.152Z,6.17
2018-10-17T11:57:41.928Z,7.57
2018-10-17T11:59:45.702Z,6.77
2018-10-17T12:01:49.700Z,6.87
2018-10-17T12:03:53.397Z,6.53
2018-10-17T12:05:57.173Z,6.97
2018-10-17T12:08:03.359Z,6.07
2018-10-17T12:10:07.596Z,11.80
2018-10-17T12:12:11.190Z,6.33
2018-10-17T12:14:14.910Z,5.73
2018-10-17T12:16:18.570Z,6.27
2018-10-17T12:18:22.275Z,6.10
2018-10-17T12:20:26.949Z,8.80
2018-10-17T12:22:30.858Z,6.67
2018-10-17T12:24:34.556Z,6.03
2018-10-17T12:26:38.252Z,6.67
2018-10-17T12:28:42.049Z,6.30
2018-10-17T12:30:45.797Z,7.37
2018-10-17T12:35:20.420Z,7.20
2018-10-17T12:37:24.121Z,9.50
2018-10-17T12:39:30.893Z,5.77
2018-10-17T12:41:34.538Z,6.17
2018-10-17T12:43:39.272Z,7.23
2018-10-17T12:45:53.311Z,6.97
2018-10-17T12:47:57.382Z,7.57
2018-10-17T12:50:02.458Z,7.97
2018-10-17T12:52:15.174Z,6.03
2018-10-17T12:54:18.982Z,5.70
2018-10-17T12:56:22.529Z,7.50
2018-10-17T12:58:26.120Z,5.50
2018-10-17T13:00:29.647Z,6.07
2018-10-17T13:02:33.573Z,6.30
2018-10-17T13:04:38.400Z,7.33
2018-10-17T13:06:41.914Z,6.30
2018-10-17T13:08:45.498Z,7.30
2018-10-17T13:10:48.993Z,8.33
2018-10-17T13:12:52.595Z,6.20
2018-10-17T13:14:56.218Z,5.23
2018-10-17T13:17:00.351Z,6.00
2018-10-17T13:19:04.242Z,7.00
2018-10-17T13:21:07.888Z,7.27
2018-10-17T13:23:11.568Z,4.93
2018-10-17T13:25:16.080Z,7.57
2018-10-17T13:27:22.152Z,4.97
2018-10-17T13:29:25.747Z,5.67
2018-10-17T13:31:29.276Z,5.20
2018-10-17T13:33:32.783Z,5.47
2018-10-17T13:35:36.279Z,7.43
2018-10-17T13:37:40.434Z,6.47
2018-10-17T13:39:44.496Z,5.47
2018-10-17T13:41:48.274Z,6.10
2018-10-17T13:43:53.088Z,5.80
2018-10-17T13:45:56.801Z,9.60
2018-10-17T13:48:00.480Z,6.53
2018-10-17T13:50:04.025Z,8.13
2018-10-17T13:52:07.632Z,6.60
2018-10-17T13:54:11.182Z,6.17
2018-10-17T13:56:14.780Z,5.93
2018-10-17T13:58:18.794Z,6.40
2018-10-17T14:00:22.948Z,6.87
2018-10-17T14:02:26.554Z,7.30
2018-10-17T14:04:30.265Z,6.50
2018-10-17T14:06:34.215Z,8.93
2018-10-17T14:08:39.525Z,6.43
2018-10-17T14:10:43.164Z,9.93
2018-10-17T14:12:46.780Z,8.23
2018-10-17T14:14:53.821Z,8.10
2018-10-17T14:16:57.624Z,6.87
2018-10-17T14:19:01.650Z,7.23
2018-10-17T14:21:05.395Z,7.80
2018-10-17T14:23:09.043Z,7.00
2018-10-17T14:25:14.012Z,10.03
2018-10-17T14:27:17.872Z,7.83
2018-10-17T14:29:21.546Z,8.47
2018-10-17T14:31:25.312Z,7.43
2018-10-17T14:33:28.880Z,8.63
2018-10-17T14:35:32.498Z,6.77
2018-10-17T14:37:36.062Z,8.30
2018-10-17T14:39:39.774Z,8.97
2018-10-17T14:41:43.309Z,6.93
2018-10-17T14:43:46.967Z,10.47
2018-10-17T14:45:50.713Z,9.67
2018-10-17T14:47:54.782Z,8.83
2018-10-17T14:49:58.527Z,7.77
2018-10-17T14:52:02.138Z,9.63
2018-10-17T14:54:05.954Z,9.83
2018-10-17T14:56:09.471Z,8.27
2018-10-17T14:58:13.228Z,9.13
2018-10-17T15:00:16.764Z,8.00
2018-10-17T15:02:20.364Z,7.53
2018-10-17T15:04:24.199Z,10.07
2018-10-17T15:06:27.702Z,8.17
2018-10-17T15:08:31.220Z,7.40
2018-10-17T15:10:34.915Z,11.53
2018-10-17T15:12:38.677Z,11.40
2018-10-17T15:14:42.247Z,12.27
2018-10-17T15:16:45.743Z,7.53
2018-10-17T15:18:49.505Z,9.90
2018-10-17T15:20:53.049Z,11.93
2018-10-17T15:22:56.907Z,9.97
2018-10-17T15:25:00.514Z,9.97
2018-10-17T15:27:04.135Z,9.20
2018-10-17T15:29:08.192Z,9.53
2018-10-17T15:31:11.758Z,8.33
2018-10-17T15:33:15.443Z,8.00
2018-10-17T15:35:19.188Z,7.90
2018-10-17T15:37:22.764Z,9.90
2018-10-17T15:39:26.372Z,8.17
2018-10-17T15:41:29.916Z,8.37
2018-10-17T15:43:33.460Z,9.43
2018-10-17T15:45:37.156Z,10.80
2018-10-17T15:47:40.685Z,10.97
2018-10-17T15:49:44.391Z,12.27
2018-10-17T15:51:48.136Z,11.67
2018-10-17T15:53:51.847Z,11.47
2018-10-17T15:55:55.543Z,10.23
2018-10-17T15:57:59.142Z,12.33
2018-10-17T16:00:02.935Z,9.20
2018-10-17T16:02:06.666Z,7.43
2018-10-17T16:04:10.272Z,7.67
2018-10-17T16:06:15.252Z,10.13
2018-10-17T16:08:18.915Z,11.43
2018-10-17T16:10:22.500Z,9.03
2018-10-17T16:12:26.319Z,15.47
2018-10-17T16:14:29.799Z,10.97
2018-10-17T16:16:33.300Z,9.70
2018-10-17T16:18:36.780Z,6.40
2018-10-17T16:20:40.306Z,8.87
2018-10-17T16:22:43.986Z,10.23
2018-10-17T16:24:47.602Z,9.07
2018-10-17T16:26:51.140Z,8.80
2018-10-17T16:28:54.639Z,8.67
2018-10-17T16:30:58.181Z,10.23
2018-10-17T16:33:01.892Z,8.93
2018-10-17T16:35:06.048Z,8.23
2018-10-17T16:37:09.593Z,8.83
2018-10-17T16:39:13.133Z,12.70
2018-10-17T16:41:16.685Z,11.07
2018-10-17T16:43:20.358Z,10.63
2018-10-17T16:45:23.977Z,12.27
2018-10-17T16:47:27.533Z,12.37
2018-10-17T16:49:31.218Z,8.90
2018-10-17T16:51:34.878Z,12.67
2018-10-17T16:53:38.377Z,9.90
2018-10-17T16:55:41.928Z,8.70
2018-10-17T16:57:45.408Z,9.90
2018-10-17T16:59:48.893Z,10.10
2018-10-17T17:01:52.386Z,8.10
2018-10-17T17:03:55.892Z,12.47
2018-10-17T17:05:59.401Z,9.97
2018-10-17T17:08:03.121Z,8.67
2018-10-17T17:10:07.107Z,9.60
2018-10-17T17:12:10.733Z,12.07
2018-10-17T17:14:14.331Z,9.67
2018-10-17T17:16:17.894Z,11.70
2018-10-17T17:18:21.571Z,13.20
2018-10-17T17:20:25.041Z,9.23
2018-10-17T17:22:28.590Z,14.10
2018-10-17T17:24:32.241Z,10.60
2018-10-17T17:26:35.804Z,14.33
2018-10-17T17:28:39.289Z,11.17
2018-10-17T17:30:42.817Z,9.17
2018-10-17T17:32:47.326Z,12.70
2018-10-17T17:34:50.835Z,13.10
2018-10-17T17:36:54.363Z,13.03
2018-10-17T17:38:57.880Z,12.40
2018-10-17T17:41:01.381Z,10.50
2018-10-17T17:43:05.279Z,11.87
2018-10-17T17:45:10.117Z,11.60
2018-10-17T17:47:13.653Z,10.10
2018-10-17T17:49:17.147Z,10.90
2018-10-17T17:51:20.664Z,10.60
2018-10-17T17:53:24.222Z,8.80
2018-10-17T17:55:27.691Z,10.10
2018-10-17T17:57:31.180Z,10.53
2018-10-17T17:59:34.763Z,9.83
2018-10-17T18:01:38.310Z,10.17
2018-10-17T18:03:41.900Z,11.03
2018-10-17T18:05:45.404Z,12.77
2018-10-17T18:07:48.944Z,11.47
2018-10-17T18:09:52.470Z,11.03
2018-10-17T18:11:56.480Z,12.97
2018-10-17T18:13:59.997Z,13.83
2018-10-17T18:16:03.599Z,10.37
2018-10-17T18:18:07.186Z,9.50
2018-10-17T18:20:10.671Z,11.43
2018-10-17T18:22:14.234Z,13.97
2018-10-17T18:24:17.886Z,10.80
2018-10-17T18:26:21.432Z,12.90
2018-10-17T18:28:24.945Z,13.73
2018-10-17T18:30:28.599Z,11.93
2018-10-17T18:32:32.125Z,11.07
2018-10-17T18:34:35.619Z,10.70
2018-10-17T18:36:39.641Z,10.47
2018-10-17T18:38:43.101Z,11.13
2018-10-17T18:40:46.649Z,14.57
2018-10-17T18:42:50.297Z,15.17
2018-10-17T18:44:53.811Z,15.57
2018-10-17T18:46:57.391Z,15.33
2018-10-17T18:49:00.856Z,15.17
2018-10-17T18:51:04.837Z,16.23
2018-10-17T18:53:08.537Z,15.87
2018-10-17T18:55:12.047Z,14.57
2018-10-17T18:57:15.704Z,18.07
2018-10-17T18:59:19.284Z,14.60
2018-10-17T19:01:22.890Z,13.77
2018-10-17T19:03:26.649Z,14.23
2018-10-17T19:05:30.186Z,18.67
2018-10-17T19:07:34.106Z,14.33
2018-10-17T19:09:37.591Z,14.23
2018-10-17T19:11:41.176Z,15.43
2018-10-17T19:13:44.723Z,12.93
2018-10-17T19:15:48.235Z,16.13
2018-10-17T19:17:58.464Z,16.40
2018-10-17T19:20:01.958Z,18.50
2018-10-17T19:22:06.090Z,14.40
2018-10-17T19:24:09.600Z,15.20
2018-10-17T19:26:13.171Z,20.53
2018-10-17T19:28:16.705Z,18.03
2018-10-17T19:30:20.650Z,17.57
2018-10-17T19:32:24.716Z,15.67
2018-10-17T19:34:28.234Z,17.27
2018-10-17T19:36:31.871Z,17.97
2018-10-17T19:38:35.409Z,19.67
2018-10-17T19:40:38.902Z,16.30
2018-10-17T19:42:42.485Z,15.43
2018-10-17T19:44:46.033Z,15.90
2018-10-17T19:46:49.567Z,14.07
2018-10-17T19:48:53.049Z,14.73
2018-10-17T19:50:56.568Z,16.13
2018-10-17T19:53:00.249Z,17.70
2018-10-17T19:55:03.759Z,16.77
2018-10-17T19:57:07.279Z,19.23
2018-10-17T19:59:10.961Z,17.90
2018-10-17T20:01:14.464Z,19.97
2018-10-17T20:03:18.005Z,16.57
2018-10-17T20:05:21.557Z,18.27
2018-10-17T20:07:27.963Z,16.53
2018-10-17T20:09:31.637Z,17.03
2018-10-17T20:11:35.144Z,17.10
2018-10-17T20:13:38.684Z,16.10
2018-10-17T20:15:42.193Z,15.87
2018-10-17T20:17:45.741Z,15.90
2018-10-17T20:19:49.267Z,15.03
2018-10-17T20:21:52.772Z,15.57
2018-10-17T20:23:56.339Z,18.37
2018-10-17T20:25:59.884Z,14.20
2018-10-17T20:28:03.906Z,15.87
2018-10-17T20:30:09.133Z,15.10
2018-10-17T20:32:12.634Z,14.97
2018-10-17T20:34:16.152Z,16.63
2018-10-17T20:36:19.667Z,16.27
2018-10-17T20:38:23.538Z,14.45
2018-10-17T20:40:27.220Z,16.63
2018-10-17T20:42:30.707Z,15.70
2018-10-17T20:44:34.240Z,20.10
2018-10-17T20:46:37.780Z,18.17
2018-10-17T20:48:41.336Z,16.60
2018-10-17T20:50:44.845Z,15.87
2018-10-17T20:52:48.317Z,16.20
2018-10-17T20:54:51.863Z,20.63
2018-10-17T20:56:55.380Z,19.17
2018-10-17T20:58:58.916Z,18.63
2018-10-17T21:01:02.734Z,18.02
2018-10-17T21:03:06.264Z,17.83
2018-10-17T21:05:09.797Z,16.20
2018-10-17T21:07:13.587Z,16.45
2018-10-17T21:09:17.370Z,16.62
2018-10-17T21:11:20.893Z,16.93
2018-10-17T21:13:24.564Z,16.77
2018-10-17T21:15:28.371Z,18.80
2018-10-17T21:17:32.160Z,18.45
2018-10-17T21:19:35.683Z,17.00
2018-10-17T21:21:39.532Z,18.45
2018-10-17T21:23:43.400Z,16.73
2018-10-17T21:25:46.907Z,17.73
2018-10-17T21:27:50.675Z,17.40
2018-10-17T21:29:54.473Z,15.58
2018-10-17T21:31:59.005Z,17.57
2018-10-17T21:34:02.984Z,16.65
2018-10-17T21:36:06.760Z,18.48
2018-10-17T21:38:10.559Z,17.35
2018-10-17T21:40:14.353Z,17.50
2018-10-17T21:42:18.144Z,16.25
2018-10-17T21:44:21.667Z,15.80
2018-10-17T21:46:25.428Z,17.62
2018-10-17T21:48:29.259Z,19.35
2018-10-17T21:50:32.760Z,18.07
2018-10-17T21:52:36.542Z,21.65
2018-10-17T21:54:40.349Z,21.87
2018-10-17T21:56:44.207Z,20.02
2018-10-17T21:58:48.035Z,23.40
2018-10-17T22:00:52.224Z,28.65
2018-10-17T22:02:56.005Z,20.55
2018-10-17T22:04:59.828Z,19.73
2018-10-17T22:07:04.044Z,20.08
2018-10-17T22:09:09.274Z,20.92
2018-10-17T22:11:13.060Z,19.95
2018-10-17T22:13:16.896Z,18.12
2018-10-17T22:15:20.872Z,18.98
2018-10-17T22:17:27.788Z,20.37
2018-10-17T22:19:31.626Z,18.70
2018-10-17T22:21:35.596Z,19.45
2018-10-17T22:23:39.452Z,20.32
2018-10-17T22:25:43.309Z,18.65
2018-10-17T22:27:47.155Z,18.45
2018-10-17T22:29:51.649Z,16.60
2018-10-17T22:31:55.681Z,19.23
2018-10-17T22:33:59.624Z,23.47
2018-10-17T22:36:03.425Z,18.95
2018-10-17T22:38:07.247Z,21.15
2018-10-17T22:40:11.219Z,22.20
2018-10-17T22:42:15.023Z,19.50
2018-10-17T22:44:18.804Z,18.95
2018-10-17T22:46:22.615Z,18.50
2018-10-17T22:48:26.404Z,19.00
2018-10-17T22:50:30.602Z,19.62
2018-10-17T22:52:34.411Z,20.23
2018-10-17T22:54:38.223Z,17.85
2018-10-17T22:56:42.007Z,21.48
2018-10-17T22:58:45.820Z,18.62
2018-10-17T23:00:49.981Z,18.75
2018-10-17T23:02:53.760Z,20.92
2018-10-17T23:04:57.880Z,21.33
2018-10-17T23:07:01.662Z,18.32
2018-10-17T23:09:10.465Z,20.32
2018-10-17T23:11:14.265Z,21.05
2018-10-17T23:13:18.035Z,22.35
2018-10-17T23:15:21.879Z,18.82
2018-10-17T23:17:25.671Z,18.35
2018-10-17T23:19:29.456Z,21.95
2018-10-17T23:21:33.248Z,20.55
2018-10-17T23:23:37.019Z,18.52
2018-10-17T23:25:40.889Z,19.00
2018-10-17T23:27:44.699Z,17.35
2018-10-17T23:29:48.459Z,19.87
2018-10-17T23:31:52.307Z,18.92
2018-10-17T23:33:56.267Z,18.30
2018-10-17T23:36:00.070Z,20.23
2018-10-17T23:38:03.917Z,17.10
2018-10-17T23:40:08.478Z,18.50
2018-10-17T23:42:12.427Z,20.20
2018-10-17T23:44:16.349Z,19.85
2018-10-17T23:46:20.247Z,19.73
2018-10-17T23:48:24.008Z,16.93
2018-10-17T23:50:27.842Z,18.42
2018-10-17T23:52:31.669Z,18.07
2018-10-17T23:54:35.519Z,17.07
2018-10-17T23:56:39.325Z,18.62
2018-10-17T23:58:43.332Z,17.20
